PWSweather.com
Personal Weather Stations
Station Observations
KAZPHOEN90
RayThunderhill, Phoenix, AZ

RayThunderhillPhoenix, AZ

Lat: 33.312, Lon: -112.029

Elevation: 1260

Station Type: Davis Vantage VUE

Latest ConditionsUpdated 9:15:01 PM MST Tuesday, Sep 1, 2015
Currently Today's Max Today's Min Today's Average
Temperature 91.3°F32.9°C 100.8°F38.2°C 75.4°F24.1°C 87.6°F30.9°C
Dew Point 61.4°F16.3°C 68.4°F20.2°C 59.5°F15.3°C 64.4°F18.0°C
Winds 0.1 mph N0.2 kmh N 3.4 mph E5.5 kmh E - 0.5 mph 0.8 kmh
Wind Gusts -- 7.0 mph11.3 kmh - -
Humidity 37% 76% 28% 50%
Pressure 29.75 in1007.5 mb 29.82 in1009.8 mb 29.68 in1005.1 mb -
Hour Temp Dew Point Humidity Winds Wind Gusts Pressure Precip Precip Rate Daily Precip Total
09:15 PM 91.3°F32.9°C 61.4°F16.3°C 37% 0.1 mph N0.2 kmh N -- 29.75 in1007.5 mb - 0.00 in0.0 mm 0.00 in0.0 mm
09:00 PM 91.5°F33.1°C 61.6°F16.4°C 37% Calm Calm -- 29.74 in1007.1 mb - 0.00 in0.0 mm 0.00 in0.0 mm
08:45 PM 91.5°F33.1°C 61.6°F16.4°C 37% 0.3 mph N0.5 kmh N 2.0 mph3.2 kmh 29.74 in1007.1 mb - 0.00 in0.0 mm 0.00 in0.0 mm
08:30 PM 91.8°F33.2°C 61.8°F16.6°C 37% 0.1 mph NNW0.2 kmh NNW -- 29.73 in1006.8 mb - 0.00 in0.0 mm 0.00 in0.0 mm
08:15 PM 92.1°F33.4°C 61.3°F16.3°C 36% 0.6 mph N1.0 kmh N 1.0 mph1.6 kmh 29.73 in1006.8 mb - 0.00 in0.0 mm 0.00 in0.0 mm
08:00 PM 92.3°F33.5°C 61.5°F16.4°C 36% Calm Calm -- 29.73 in1006.8 mb - 0.00 in0.0 mm 0.00 in0.0 mm
07:45 PM 92.2°F33.4°C 60.6°F15.9°C 35% 0.1 mph N0.2 kmh N -- 29.71 in1006.1 mb - 0.00 in0.0 mm 0.00 in0.0 mm
07:30 PM 92.5°F33.6°C 60.0°F15.6°C 34% Calm Calm -- 29.70 in1005.8 mb - 0.00 in0.0 mm 0.00 in0.0 mm
07:15 PM 92.9°F33.8°C 59.6°F15.3°C 33% Calm Calm -- 29.70 in1005.8 mb - 0.00 in0.0 mm 0.00 in0.0 mm
07:00 PM 93.9°F34.4°C 59.5°F15.3°C 32% Calm Calm -- 29.70 in1005.8 mb - 0.00 in0.0 mm 0.00 in0.0 mm
06:45 PM 95.0°F35.0°C 59.7°F15.4°C 31% Calm Calm -- 29.68 in1005.1 mb - 0.00 in0.0 mm 0.00 in0.0 mm
06:30 PM 96.0°F35.6°C 59.6°F15.3°C 30% Calm Calm -- 29.69 in1005.4 mb - 0.00 in0.0 mm 0.00 in0.0 mm
06:15 PM 96.7°F35.9°C 60.2°F15.7°C 30% Calm Calm -- 29.69 in1005.4 mb - 0.00 in0.0 mm 0.00 in0.0 mm
06:00 PM 97.7°F36.5°C 60.1°F15.6°C 29% Calm Calm -- 29.69 in1005.4 mb - 0.00 in0.0 mm 0.00 in0.0 mm
05:45 PM 97.8°F36.6°C 60.1°F15.6°C 29% Calm Calm -- 29.69 in1005.4 mb - 0.00 in0.0 mm 0.00 in0.0 mm
05:30 PM 97.3°F36.3°C 60.7°F15.9°C 30% Calm Calm -- 29.68 in1005.1 mb - 0.00 in0.0 mm 0.00 in0.0 mm
05:15 PM 97.3°F36.3°C 60.7°F15.9°C 30% Calm Calm -- 29.69 in1005.4 mb - 0.00 in0.0 mm 0.00 in0.0 mm
05:00 PM 97.8°F36.6°C 60.2°F15.7°C 29% 0.2 mph SE0.3 kmh SE 1.0 mph1.6 kmh 29.69 in1005.4 mb - 0.00 in0.0 mm 0.00 in0.0 mm
04:45 PM 98.4°F36.9°C 60.7°F15.9°C 29% 0.6 mph ESE1.0 kmh ESE 2.0 mph3.2 kmh 29.69 in1005.4 mb - 0.00 in0.0 mm 0.00 in0.0 mm
04:30 PM 98.9°F37.2°C 62.1°F16.7°C 30% 0.1 mph E0.2 kmh E -- 29.70 in1005.8 mb - 0.00 in0.0 mm 0.00 in0.0 mm
04:15 PM 98.7°F37.1°C 59.9°F15.5°C 28% Calm Calm -- 29.70 in1005.8 mb - 0.00 in0.0 mm 0.00 in0.0 mm
04:00 PM 98.6°F37.0°C 60.8°F16.0°C 29% 0.6 mph WSW1.0 kmh WSW 2.0 mph3.2 kmh 29.70 in1005.8 mb - 0.00 in0.0 mm 0.00 in0.0 mm
03:45 PM 99.2°F37.3°C 60.4°F15.8°C 28% 1.5 mph SSE2.4 kmh SSE 3.0 mph4.8 kmh 29.70 in1005.8 mb - 0.00 in0.0 mm 0.00 in0.0 mm
03:30 PM 100.3°F37.9°C 62.3°F16.8°C 29% 0.4 mph E0.6 kmh E 1.0 mph1.6 kmh 29.70 in1005.8 mb - 0.00 in0.0 mm 0.00 in0.0 mm
03:15 PM 100.8°F38.2°C 62.8°F17.1°C 29% 1.6 mph SE2.6 kmh SE 3.0 mph4.8 kmh 29.71 in1006.1 mb - 0.00 in0.0 mm 0.00 in0.0 mm
03:00 PM 100.0°F37.8°C 63.9°F17.7°C 31% 0.8 mph SE1.3 kmh SE 1.0 mph1.6 kmh 29.71 in1006.1 mb - 0.00 in0.0 mm 0.00 in0.0 mm
02:45 PM 99.5°F37.5°C 63.5°F17.5°C 31% 1.6 mph ESE2.6 kmh ESE 2.0 mph3.2 kmh 29.72 in1006.4 mb - 0.00 in0.0 mm 0.00 in0.0 mm
02:30 PM 99.6°F37.6°C 63.6°F17.6°C 31% 0.4 mph SE0.6 kmh SE 3.0 mph4.8 kmh 29.74 in1007.1 mb - 0.00 in0.0 mm 0.00 in0.0 mm
02:15 PM 99.1°F37.3°C 63.2°F17.3°C 31% 1.2 mph SE1.9 kmh SE 2.0 mph3.2 kmh 29.74 in1007.1 mb - 0.00 in0.0 mm 0.00 in0.0 mm
02:00 PM 99.0°F37.2°C 64.0°F17.8°C 32% 1.4 mph ESE2.3 kmh ESE 4.0 mph6.4 kmh 29.74 in1007.1 mb - 0.00 in0.0 mm 0.00 in0.0 mm
01:45 PM 98.2°F36.8°C 65.0°F18.3°C 34% 3.4 mph E5.5 kmh E 7.0 mph11.3 kmh 29.75 in1007.5 mb - 0.00 in0.0 mm 0.00 in0.0 mm
01:30 PM 97.1°F36.2°C 65.7°F18.7°C 36% 0.3 mph ESE0.5 kmh ESE 1.0 mph1.6 kmh 29.76 in1007.8 mb - 0.00 in0.0 mm 0.00 in0.0 mm
01:15 PM 96.9°F36.1°C 64.7°F18.2°C 35% 0.7 mph SW1.1 kmh SW 2.0 mph3.2 kmh 29.76 in1007.8 mb - 0.00 in0.0 mm 0.00 in0.0 mm
01:00 PM 96.4°F35.8°C 65.9°F18.8°C 37% 1.6 mph SE2.6 kmh SE 5.0 mph8.0 kmh 29.77 in1008.1 mb - 0.00 in0.0 mm 0.00 in0.0 mm
12:45 PM 95.4°F35.2°C 65.8°F18.8°C 38% 0.8 mph NE1.3 kmh NE 2.0 mph3.2 kmh 29.77 in1008.1 mb - 0.00 in0.0 mm 0.00 in0.0 mm
12:30 PM 93.7°F34.3°C 65.0°F18.3°C 39% 0.6 mph SSW1.0 kmh SSW 2.0 mph3.2 kmh 29.78 in1008.5 mb - 0.00 in0.0 mm 0.00 in0.0 mm
12:15 PM 93.6°F34.2°C 65.6°F18.7°C 40% 2.8 mph SE4.5 kmh SE 6.0 mph9.7 kmh 29.78 in1008.5 mb - 0.00 in0.0 mm 0.00 in0.0 mm
12:00 PM 93.8°F34.3°C 65.1°F18.4°C 39% 0.7 mph SE1.1 kmh SE 2.0 mph3.2 kmh 29.79 in1008.8 mb - 0.00 in0.0 mm 0.00 in0.0 mm
11:45 AM 93.4°F34.1°C 64.7°F18.2°C 39% Calm Calm -- 29.79 in1008.8 mb - 0.00 in0.0 mm 0.00 in0.0 mm
11:30 AM 92.2°F33.4°C 64.4°F18.0°C 40% 1.6 mph NE2.6 kmh NE 3.0 mph4.8 kmh 29.80 in1009.1 mb - 0.00 in0.0 mm 0.00 in0.0 mm
11:15 AM 92.0°F33.3°C 64.3°F17.9°C 40% 1.6 mph N2.6 kmh N 2.0 mph3.2 kmh 29.81 in1009.5 mb - 0.00 in0.0 mm 0.00 in0.0 mm
11:00 AM 91.6°F33.1°C 64.6°F18.1°C 41% 0.6 mph SW1.0 kmh SW 1.0 mph1.6 kmh 29.81 in1009.5 mb - 0.00 in0.0 mm 0.00 in0.0 mm
10:45 AM 91.2°F32.9°C 64.9°F18.3°C 42% 0.6 mph ESE1.0 kmh ESE 1.0 mph1.6 kmh 29.81 in1009.5 mb - 0.00 in0.0 mm 0.00 in0.0 mm
10:30 AM 91.4°F33.0°C 65.1°F18.4°C 42% 1.2 mph E1.9 kmh E 3.0 mph4.8 kmh 29.81 in1009.5 mb - 0.00 in0.0 mm 0.00 in0.0 mm
10:15 AM 90.4°F32.4°C 65.5°F18.6°C 44% 0.4 mph NW0.6 kmh NW 2.0 mph3.2 kmh 29.81 in1009.5 mb - 0.00 in0.0 mm 0.00 in0.0 mm
10:00 AM 89.3°F31.8°C 63.9°F17.7°C 43% 0.9 mph NE1.4 kmh NE 4.0 mph6.4 kmh 29.82 in1009.8 mb - 0.00 in0.0 mm 0.00 in0.0 mm
09:45 AM 88.4°F31.3°C 64.9°F18.3°C 46% 0.2 mph E0.3 kmh E 1.0 mph1.6 kmh 29.81 in1009.5 mb - 0.00 in0.0 mm 0.00 in0.0 mm
09:30 AM 87.2°F30.7°C 65.1°F18.4°C 48% 0.5 mph E0.8 kmh E 4.0 mph6.4 kmh 29.81 in1009.5 mb - 0.00 in0.0 mm 0.00 in0.0 mm
09:15 AM 86.6°F30.3°C 65.1°F18.4°C 49% 0.7 mph NW1.1 kmh NW 2.0 mph3.2 kmh 29.81 in1009.5 mb - 0.00 in0.0 mm 0.00 in0.0 mm
09:00 AM 85.6°F29.8°C 64.8°F18.2°C 50% 2.1 mph NNW3.4 kmh NNW 4.0 mph6.4 kmh 29.81 in1009.5 mb - 0.00 in0.0 mm 0.00 in0.0 mm
08:45 AM 85.3°F29.6°C 65.7°F18.7°C 52% 0.2 mph E0.3 kmh E 2.0 mph3.2 kmh 29.80 in1009.1 mb - 0.00 in0.0 mm 0.00 in0.0 mm
08:30 AM 84.1°F28.9°C 65.1°F18.4°C 53% 1.3 mph ESE2.1 kmh ESE 5.0 mph8.0 kmh 29.80 in1009.1 mb - 0.00 in0.0 mm 0.00 in0.0 mm
08:15 AM 83.1°F28.4°C 65.3°F18.5°C 55% 0.7 mph NNE1.1 kmh NNE 3.0 mph4.8 kmh 29.80 in1009.1 mb - 0.00 in0.0 mm 0.00 in0.0 mm
08:00 AM 82.7°F28.2°C 64.9°F18.3°C 55% 1.8 mph N2.9 kmh N 4.0 mph6.4 kmh 29.80 in1009.1 mb - 0.00 in0.0 mm 0.00 in0.0 mm
07:45 AM 81.2°F27.3°C 65.5°F18.6°C 59% 0.1 mph NE0.2 kmh NE 1.0 mph1.6 kmh 29.80 in1009.1 mb - 0.00 in0.0 mm 0.00 in0.0 mm
07:30 AM 80.2°F26.8°C 66.0°F18.9°C 62% Calm Calm -- 29.80 in1009.1 mb - 0.00 in0.0 mm 0.00 in0.0 mm
07:15 AM 78.5°F25.8°C 66.2°F19.0°C 66% Calm Calm -- 29.80 in1009.1 mb - 0.00 in0.0 mm 0.00 in0.0 mm
07:00 AM 76.1°F24.5°C 66.4°F19.1°C 72% Calm Calm -- 29.79 in1008.8 mb - 0.00 in0.0 mm 0.00 in0.0 mm
06:45 AM 75.4°F24.1°C 67.3°F19.6°C 76% Calm Calm -- 29.78 in1008.5 mb - 0.00 in0.0 mm 0.00 in0.0 mm
06:30 AM 75.8°F24.3°C 65.7°F18.7°C 71% Calm Calm -- 29.78 in1008.5 mb - 0.00 in0.0 mm 0.00 in0.0 mm
06:15 AM 76.1°F24.5°C 66.0°F18.9°C 71% Calm Calm -- 29.77 in1008.1 mb - 0.00 in0.0 mm 0.00 in0.0 mm
06:00 AM 76.3°F24.6°C 65.8°F18.8°C 70% Calm Calm -- 29.77 in1008.1 mb - 0.00 in0.0 mm 0.00 in0.0 mm
05:45 AM 76.3°F24.6°C 66.6°F19.2°C 72% Calm Calm -- 29.77 in1008.1 mb - 0.00 in0.0 mm 0.00 in0.0 mm
05:30 AM 76.0°F24.4°C 66.4°F19.1°C 72% Calm Calm -- 29.77 in1008.1 mb - 0.00 in0.0 mm 0.00 in0.0 mm
05:15 AM 76.2°F24.6°C 66.5°F19.2°C 72% 0.1 mph N0.2 kmh N 1.0 mph1.6 kmh 29.77 in1008.1 mb - 0.00 in0.0 mm 0.00 in0.0 mm
05:00 AM 76.1°F24.5°C 66.4°F19.1°C 72% 0.2 mph N0.3 kmh N 1.0 mph1.6 kmh 29.78 in1008.5 mb - 0.00 in0.0 mm 0.00 in0.0 mm
04:45 AM 75.5°F24.2°C 67.1°F19.5°C 75% Calm Calm -- 29.78 in1008.5 mb - 0.00 in0.0 mm 0.00 in0.0 mm
04:30 AM 76.0°F24.4°C 66.7°F19.3°C 73% Calm Calm -- 29.78 in1008.5 mb - 0.00 in0.0 mm 0.00 in0.0 mm
04:15 AM 75.8°F24.3°C 66.9°F19.4°C 74% Calm Calm -- 29.78 in1008.5 mb - 0.00 in0.0 mm 0.00 in0.0 mm
04:00 AM 76.1°F24.5°C 66.4°F19.1°C 72% Calm Calm -- 29.78 in1008.5 mb - 0.00 in0.0 mm 0.00 in0.0 mm
03:45 AM 76.4°F24.7°C 67.1°F19.5°C 73% 0.4 mph WSW0.6 kmh WSW 2.0 mph3.2 kmh 29.78 in1008.5 mb - 0.00 in0.0 mm 0.00 in0.0 mm
03:30 AM 76.6°F24.8°C 68.4°F20.2°C 76% Calm Calm -- 29.79 in1008.8 mb - 0.00 in0.0 mm 0.00 in0.0 mm
03:15 AM 76.4°F24.7°C 68.3°F20.2°C 76% Calm Calm -- 29.79 in1008.8 mb - 0.00 in0.0 mm 0.00 in0.0 mm
03:00 AM 76.0°F24.4°C 67.1°F19.5°C 74% Calm Calm -- 29.78 in1008.5 mb - 0.00 in0.0 mm 0.00 in0.0 mm
02:45 AM 76.8°F24.9°C 66.3°F19.1°C 70% Calm Calm -- 29.78 in1008.5 mb - 0.00 in0.0 mm 0.00 in0.0 mm
02:30 AM 76.6°F24.8°C 66.1°F18.9°C 70% Calm Calm -- 29.79 in1008.8 mb - 0.00 in0.0 mm 0.00 in0.0 mm
02:15 AM 77.4°F25.2°C 66.0°F18.9°C 68% Calm Calm -- 29.79 in1008.8 mb - 0.00 in0.0 mm 0.00 in0.0 mm
02:00 AM 77.6°F25.3°C 66.6°F19.2°C 69% Calm Calm -- 29.80 in1009.1 mb - 0.00 in0.0 mm 0.00 in0.0 mm
01:45 AM 77.5°F25.3°C 67.4°F19.7°C 71% Calm Calm 1.0 mph1.6 kmh 29.80 in1009.1 mb - 0.00 in0.0 mm 0.00 in0.0 mm
01:30 AM 77.3°F25.2°C 67.9°F19.9°C 73% Calm Calm 1.0 mph1.6 kmh 29.81 in1009.5 mb - 0.00 in0.0 mm 0.00 in0.0 mm
01:15 AM 77.3°F25.2°C 68.0°F20.0°C 73% Calm Calm -- 29.82 in1009.8 mb - 0.00 in0.0 mm 0.00 in0.0 mm
01:00 AM 77.2°F25.1°C 67.9°F19.9°C 73% 0.3 mph E0.5 kmh E 2.0 mph3.2 kmh 29.82 in1009.8 mb - 0.00 in0.0 mm 0.00 in0.0 mm
12:45 AM 77.3°F25.2°C 68.0°F20.0°C 73% 0.2 mph SE0.3 kmh SE 1.0 mph1.6 kmh 29.82 in1009.8 mb - 0.00 in0.0 mm 0.00 in0.0 mm
12:30 AM 77.4°F25.2°C 67.7°F19.8°C 72% 1.2 mph E1.9 kmh E 4.0 mph6.4 kmh 29.82 in1009.8 mb - 0.00 in0.0 mm 0.00 in0.0 mm
12:15 AM 78.0°F25.6°C 67.8°F19.9°C 71% 0.8 mph SE1.3 kmh SE 1.0 mph1.6 kmh 29.82 in1009.8 mb - 0.00 in0.0 mm 0.00 in0.0 mm
12:00 AM 77.9°F25.5°C 67.7°F19.8°C 71% 0.4 mph NNE0.6 kmh NNE 1.0 mph1.6 kmh 29.82 in1009.8 mb - 0.00 in0.0 mm 0.00 in0.0 mm